Time;durP1;ratioP1;P1;durP2;ratioP2;P2;SDS_P1;SDS_P2;PMS_P1;PMS_P2;Temp;Humidity;BMP_temperature;BMP_pressure;BME280_temperature;BME280_humidity;BME280_pressure;Samples;Min_cycle;Max_cycle;Signal;HPM_P1;HPM_P2
2021/08/19 04:31:10;;;;;;;2.20;1.03;;;16.70;99.90;;;;;;5756540;23;20510;-77
2021/08/19 04:33:36;;;;;;;1.73;1.10;;;16.70;99.90;;;;;;4952009;29;20925;-79
2021/08/19 04:36:02;;;;;;;1.73;0.90;;;16.70;99.90;;;;;;4955190;28;20195;-80
2021/08/19 04:38:27;;;;;;;1.20;1.20;;;16.70;99.90;;;;;;4958954;29;20173;-80
2021/08/19 04:40:53;;;;;;;1.57;1.20;;;16.70;99.90;;;;;;4959655;28;20193;-80
2021/08/19 04:43:18;;;;;;;0.90;0.90;;;16.70;99.90;;;;;;4959363;29;20192;-80
2021/08/19 04:45:44;;;;;;;5.73;1.20;;;16.70;99.90;;;;;;4959891;29;20181;-79
2021/08/19 04:48:09;;;;;;;4.13;0.83;;;16.70;99.90;;;;;;4959512;29;20577;-80
2021/08/19 04:50:35;;;;;;;1.00;0.90;;;16.70;99.90;;;;;;4959871;28;20183;-80
2021/08/19 04:53:04;;;;;;;1.00;1.00;;;16.70;99.90;;;;;;4959534;29;20212;-80
2021/08/19 04:55:29;;;;;;;1.10;1.10;;;16.70;99.90;;;;;;4958846;29;20196;-80
2021/08/19 04:57:55;;;;;;;1.10;1.10;;;16.70;99.90;;;;;;4959262;29;20427;-80
2021/08/19 05:00:20;;;;;;;4.37;1.27;;;16.80;99.90;;;;;;4959099;29;20267;-80
2021/08/19 05:02:46;;;;;;;5.13;1.47;;;16.80;99.90;;;;;;4958483;28;20192;-80
2021/08/19 05:05:11;;;;;;;0.90;0.90;;;16.90;99.90;;;;;;4958766;29;20651;-80
2021/08/19 05:07:37;;;;;;;1.03;0.90;;;16.90;99.90;;;;;;4959086;29;20212;-80
2021/08/19 05:10:03;;;;;;;1.53;1.10;;;16.90;99.90;;;;;;4958848;29;20181;-81
2021/08/19 05:12:28;;;;;;;1.20;1.20;;;16.90;99.90;;;;;;4958904;28;20192;-79
2021/08/19 05:14:54;;;;;;;1.37;1.30;;;16.90;99.90;;;;;;4958793;29;20710;-80
2021/08/19 05:17:19;;;;;;;1.40;1.13;;;16.90;99.90;;;;;;4959186;29;20533;-80
2021/08/19 05:19:45;;;;;;;1.70;1.60;;;17.00;99.90;;;;;;4959209;29;20188;-79
2021/08/19 05:22:10;;;;;;;2.30;0.93;;;16.90;99.90;;;;;;4958709;28;20208;-79
2021/08/19 05:24:36;;;;;;;2.70;1.30;;;17.00;99.90;;;;;;4958872;29;20180;-80
2021/08/19 05:27:02;;;;;;;1.20;1.10;;;17.00;99.90;;;;;;4958422;29;20177;-80
2021/08/19 05:29:27;;;;;;;2.17;2.07;;;17.00;99.90;;;;;;4958461;29;20200;-80
2021/08/19 05:31:53;;;;;;;1.93;1.20;;;17.00;99.90;;;;;;4956471;28;20220;-80
2021/08/19 05:34:18;;;;;;;1.43;1.33;;;17.10;99.90;;;;;;4958688;29;20179;-80
2021/08/19 05:36:45;;;;;;;2.00;1.30;;;17.10;99.90;;;;;;4957953;29;20216;-80
2021/08/19 05:39:10;;;;;;;1.43;1.33;;;17.10;99.90;;;;;;4957564;29;20495;-82
2021/08/19 05:41:36;;;;;;;1.30;1.17;;;17.10;99.90;;;;;;4957940;28;20278;-80
2021/08/19 05:44:02;;;;;;;1.10;1.10;;;17.10;99.90;;;;;;4957370;29;20216;-80
2021/08/19 05:46:27;;;;;;;2.77;2.23;;;17.10;99.90;;;;;;4958243;29;20189;-80
2021/08/19 05:48:53;;;;;;;2.33;1.10;;;17.10;99.90;;;;;;4958021;28;20252;-80
2021/08/19 05:51:18;;;;;;;2.47;1.20;;;17.20;99.90;;;;;;4958008;28;20584;-80
2021/08/19 05:53:44;;;;;;;1.57;1.33;;;17.20;99.90;;;;;;4958193;29;20194;-80
2021/08/19 05:56:09;;;;;;;2.20;1.20;;;17.20;99.90;;;;;;4959062;29;20276;-81
2021/08/19 05:58:35;;;;;;;1.30;1.20;;;17.20;99.90;;;;;;4958735;29;20235;-80
2021/08/19 06:01:01;;;;;;;1.90;0.97;;;17.20;99.90;;;;;;4958657;28;20223;-80
2021/08/19 06:03:26;;;;;;;1.17;0.93;;;17.30;99.90;;;;;;4959326;29;20196;-79
2021/08/19 06:05:52;;;;;;;2.60;1.30;;;17.30;99.90;;;;;;4959171;29;20185;-80
2021/08/19 06:08:18;;;;;;;1.33;1.23;;;17.30;99.90;;;;;;4959204;29;20208;-80
2021/08/19 06:10:44;;;;;;;1.73;1.00;;;17.40;99.90;;;;;;4960050;28;20180;-80
2021/08/19 06:13:10;;;;;;;2.00;1.30;;;17.40;99.90;;;;;;4959425;29;20412;-80
2021/08/19 06:15:36;;;;;;;1.53;1.10;;;17.50;99.90;;;;;;4959066;29;20172;-80
2021/08/19 06:18:01;;;;;;;0.87;0.87;;;17.50;99.90;;;;;;4959184;29;20189;-80
2021/08/19 06:20:27;;;;;;;1.47;1.10;;;17.60;99.90;;;;;;4959560;28;20177;-79
2021/08/19 06:22:54;;;;;;;1.33;1.27;;;17.60;99.90;;;;;;4959034;29;20561;-80
2021/08/19 06:25:20;;;;;;;5.60;1.27;;;17.60;99.90;;;;;;4959050;29;20184;-80
2021/08/19 06:27:46;;;;;;;1.20;1.13;;;17.70;99.90;;;;;;4958982;29;20466;-80
2021/08/19 06:30:12;;;;;;;2.30;0.90;;;17.80;99.90;;;;;;4958664;29;20215;-80
2021/08/19 06:32:39;;;;;;;1.53;1.40;;;17.80;99.90;;;;;;4958430;28;20456;-81
2021/08/19 06:35:05;;;;;;;2.17;2.07;;;17.90;99.90;;;;;;4958857;29;20416;-80
2021/08/19 06:37:30;;;;;;;2.73;1.53;;;17.90;99.90;;;;;;4958926;29;20412;-80
2021/08/19 06:39:57;;;;;;;1.50;1.00;;;18.00;99.90;;;;;;4959054;29;20443;-80
2021/08/19 06:42:22;;;;;;;1.27;1.17;;;18.10;99.90;;;;;;4957685;28;20200;-81
2021/08/19 06:44:48;;;;;;;1.83;1.50;;;18.20;99.90;;;;;;4958005;29;20582;-80
2021/08/19 06:47:13;;;;;;;1.30;1.17;;;18.20;99.90;;;;;;4958444;29;20173;-80
2021/08/19 06:49:41;;;;;;;1.67;1.57;;;18.30;99.90;;;;;;4959069;29;20220;-80
2021/08/19 06:52:07;;;;;;;1.33;1.20;;;18.40;99.90;;;;;;4958087;28;20272;-79
2021/08/19 06:54:32;;;;;;;4.70;1.57;;;18.60;99.90;;;;;;4958147;29;20444;-80
2021/08/19 06:57:00;;;;;;;1.30;1.10;;;18.60;99.90;;;;;;4958229;29;20177;-79
2021/08/19 06:59:26;;;;;;;2.23;1.20;;;18.70;99.90;;;;;;4957782;28;20176;-80
2021/08/19 07:01:51;;;;;;;1.30;1.20;;;18.80;99.90;;;;;;4958065;28;20440;-81
2021/08/19 07:04:17;;;;;;;1.53;1.40;;;18.90;99.90;;;;;;4957264;29;20686;-80
2021/08/19 07:06:42;;;;;;;8.23;1.47;;;18.90;99.90;;;;;;4958062;29;20263;-80
2021/08/19 07:09:08;;;;;;;1.20;1.20;;;19.00;99.90;;;;;;4958050;29;20759;-80
2021/08/19 07:11:33;;;;;;;1.27;1.10;;;19.00;99.90;;;;;;4957899;28;20208;-80
2021/08/19 07:13:59;;;;;;;1.80;1.53;;;19.00;99.90;;;;;;4957798;29;20720;-80
2021/08/19 07:16:24;;;;;;;1.40;1.30;;;19.10;99.90;;;;;;4957384;29;20176;-80
2021/08/19 07:18:50;;;;;;;4.90;1.60;;;19.20;99.90;;;;;;4958506;29;20185;-80
2021/08/19 07:21:16;;;;;;;4.07;1.10;;;19.30;99.90;;;;;;4958475;28;20196;-80
2021/08/19 07:23:41;;;;;;;3.93;1.17;;;19.30;99.90;;;;;;4958416;29;20172;-80
2021/08/19 07:26:07;;;;;;;2.13;1.17;;;19.40;99.90;;;;;;4958210;29;20413;-80
2021/08/19 07:28:33;;;;;;;5.00;1.70;;;19.50;99.90;;;;;;4957602;29;20212;-81
2021/08/19 07:30:59;;;;;;;1.17;1.07;;;19.60;99.90;;;;;;4957978;28;20210;-80
2021/08/19 07:33:24;;;;;;;3.13;1.30;;;19.70;99.90;;;;;;4958662;29;20263;-79
2021/08/19 07:35:50;;;;;;;2.03;1.87;;;19.80;99.90;;;;;;4957535;29;20173;-80
2021/08/19 07:38:18;;;;;;;2.90;1.60;;;19.90;99.90;;;;;;4958641;29;20177;-80
2021/08/19 07:40:44;;;;;;;1.40;1.30;;;19.90;99.90;;;;;;4958087;29;20267;-80
2021/08/19 07:43:10;;;;;;;1.40;1.30;;;19.60;99.90;;;;;;4958082;29;20412;-81
2021/08/19 07:45:36;;;;;;;1.33;1.23;;;19.60;99.90;;;;;;4957821;29;20444;-80
2021/08/19 07:48:28;;;;;;;3.43;1.10;;;19.60;99.90;;;;;;4957915;29;20251;-80
2021/08/19 07:50:54;;;;;;;1.40;1.30;;;19.70;99.90;;;;;;4954503;28;20459;-80
2021/08/19 07:53:19;;;;;;;2.00;1.60;;;19.70;99.90;;;;;;4957593;29;20497;-80
2021/08/19 07:55:45;;;;;;;2.90;1.33;;;19.70;99.90;;;;;;4956197;29;20453;-80
2021/08/19 07:58:11;;;;;;;4.43;1.53;;;19.70;99.90;;;;;;4958020;29;20685;-80
2021/08/19 08:00:37;;;;;;;5.40;1.87;;;19.70;99.90;;;;;;4957147;28;20184;-80
2021/08/19 08:03:03;;;;;;;1.70;1.60;;;19.70;99.90;;;;;;4957708;29;21065;-80
2021/08/19 08:05:31;;;;;;;2.23;1.00;;;19.70;99.90;;;;;;4957582;29;20191;-80
2021/08/19 08:08:05;;;;;;;1.90;1.80;;;19.70;99.90;;;;;;4955795;29;20490;-80
2021/08/19 08:10:31;;;;;;;1.20;1.10;;;19.80;99.90;;;;;;4957194;28;20471;-80
2021/08/19 08:12:59;;;;;;;1.80;1.53;;;20.10;99.90;;;;;;4959153;29;20404;-80
2021/08/19 08:15:26;;;;;;;3.37;1.60;;;20.10;99.90;;;;;;4958819;29;20700;-80
2021/08/19 08:17:51;;;;;;;1.83;1.33;;;20.20;99.90;;;;;;4961647;29;20474;-80
2021/08/19 08:20:18;;;;;;;2.60;1.10;;;20.30;99.90;;;;;;4961633;29;20894;-80
2021/08/19 08:22:45;;;;;;;1.10;1.10;;;20.50;99.90;;;;;;4961058;28;20204;-80
2021/08/19 08:25:11;;;;;;;2.17;1.53;;;20.60;99.90;;;;;;4961500;29;20420;-80
2021/08/19 08:27:37;;;;;;;2.83;1.10;;;20.80;99.90;;;;;;4960257;29;20424;-81
2021/08/19 08:30:04;;;;;;;4.50;1.40;;;21.00;99.90;;;;;;4959081;29;20421;-81
2021/08/19 08:32:30;;;;;;;2.00;1.20;;;21.00;99.90;;;;;;4960748;28;20511;-80
2021/08/19 08:34:56;;;;;;;2.20;1.20;;;21.10;99.90;;;;;;4960321;29;20424;-80
2021/08/19 08:37:24;;;;;;;1.50;1.40;;;20.80;99.90;;;;;;4960032;29;20177;-80
2021/08/19 08:39:49;;;;;;;2.00;1.57;;;20.70;99.90;;;;;;4959409;29;20424;-80
2021/08/19 08:42:15;;;;;;;2.40;1.73;;;20.70;99.90;;;;;;4959584;28;20435;-80
2021/08/19 08:44:40;;;;;;;2.10;1.10;;;20.60;99.90;;;;;;4960099;29;20188;-80
2021/08/19 08:47:07;;;;;;;1.57;1.33;;;20.90;99.90;;;;;;4960009;29;20177;-81
2021/08/19 08:49:34;;;;;;;2.17;1.20;;;21.10;99.90;;;;;;4960002;29;20212;-80
2021/08/19 08:52:00;;;;;;;1.40;1.30;;;21.30;99.90;;;;;;4959784;28;20458;-80
2021/08/19 08:54:31;;;;;;;1.10;0.90;;;21.40;99.90;;;;;;4959394;29;20496;-80
2021/08/19 08:56:57;;;;;;;1.60;1.37;;;21.50;99.90;;;;;;4958886;29;20461;-80
2021/08/19 08:59:24;;;;;;;1.83;1.70;;;21.50;99.90;;;;;;4959362;29;20866;-80
2021/08/19 09:01:49;;;;;;;3.50;1.07;;;21.70;99.90;;;;;;4960156;28;20432;-80
2021/08/19 09:04:15;;;;;;;1.10;0.90;;;21.60;99.90;;;;;;4960441;29;20925;-81
2021/08/19 09:06:43;;;;;;;1.57;1.47;;;21.50;99.90;;;;;;4960206;29;20184;-81
2021/08/19 09:09:25;;;;;;;1.33;1.23;;;21.20;99.90;;;;;;4960440;29;20560;-81
2021/08/19 09:11:54;;;;;;;4.43;1.40;;;21.20;99.90;;;;;;4960859;28;20487;-81
2021/08/19 09:14:24;;;;;;;1.53;1.30;;;21.20;99.90;;;;;;4959863;29;21006;-81
2021/08/19 09:16:50;;;;;;;0.80;0.80;;;21.00;99.90;;;;;;4960736;29;20453;-80
2021/08/19 09:19:18;;;;;;;2.60;1.33;;;21.10;99.90;;;;;;4960520;28;20508;-81
2021/08/19 09:21:53;;;;;;;1.57;1.27;;;21.20;99.90;;;;;;4960308;28;20478;-81
2021/08/19 09:24:24;;;;;;;1.20;0.90;;;21.40;99.90;;;;;;4958472;28;20886;-80
2021/08/19 09:26:51;;;;;;;1.13;1.13;;;21.70;99.90;;;;;;4959631;29;20508;-80
2021/08/19 09:29:20;;;;;;;1.23;1.13;;;22.00;99.90;;;;;;4958104;29;21085;-81
2021/08/19 09:31:47;;;;;;;5.73;1.10;;;22.30;99.90;;;;;;4960215;28;20452;-81
2021/08/19 09:34:13;;;;;;;1.00;0.80;;;22.80;99.90;;;;;;4959194;29;20420;-81
2021/08/19 09:36:38;;;;;;;0.70;0.70;;;23.80;99.90;;;;;;4958586;29;20451;-81
2021/08/19 09:39:07;;;;;;;1.40;0.70;;;24.40;99.90;;;;;;4958831;29;21094;-81
2021/08/19 09:41:53;;;;;;;0.90;0.80;;;24.80;99.90;;;;;;4958106;28;20197;-82
2021/08/19 09:44:32;;;;;;;1.40;0.70;;;24.70;99.90;;;;;;4959515;29;20419;-81
2021/08/19 09:46:58;;;;;;;1.17;0.60;;;24.70;99.90;;;;;;4958968;29;20416;-81
2021/08/19 09:49:28;;;;;;;5.27;1.13;;;24.60;99.90;;;;;;4959098;29;20463;-81
2021/08/19 09:52:11;;;;;;;1.60;0.80;;;24.70;99.90;;;;;;4958768;28;20428;-82
2021/08/19 09:54:38;;;;;;;0.70;0.70;;;25.10;99.90;;;;;;4958791;29;20412;-80
2021/08/19 09:57:05;;;;;;;0.60;0.60;;;24.80;99.90;;;;;;4960457;29;20862;-81
2021/08/19 09:59:35;;;;;;;3.63;0.60;;;24.50;99.90;;;;;;4960112;29;20420;-81
2021/08/19 10:02:01;;;;;;;3.43;0.90;;;24.60;99.90;;;;;;4956084;28;20443;-80
2021/08/19 10:04:27;;;;;;;1.20;0.60;;;24.40;99.90;;;;;;4955604;29;20428;-80
2021/08/19 10:06:56;;;;;;;2.40;0.60;;;24.10;99.90;;;;;;4954386;29;20420;-80
2021/08/19 10:09:23;;;;;;;2.50;0.73;;;24.10;99.90;;;;;;4955710;28;20468;-79
2021/08/19 10:11:51;;;;;;;0.90;0.90;;;23.90;99.90;;;;;;4955409;28;21024;-79
2021/08/19 10:14:18;;;;;;;1.00;0.90;;;24.00;99.90;;;;;;4955327;29;20412;-79
2021/08/19 10:16:45;;;;;;;1.20;0.83;;;24.00;99.90;;;;;;4955286;29;20408;-79
2021/08/19 10:19:22;;;;;;;1.40;1.30;;;23.80;99.90;;;;;;4955548;29;20996;-79
2021/08/19 10:21:52;;;;;;;1.73;1.20;;;24.00;99.90;;;;;;4953706;28;20444;-79
2021/08/19 10:24:23;;;;;;;1.97;0.73;;;24.00;99.90;;;;;;4955102;29;20420;-79
2021/08/19 10:27:21;;;;;;;0.70;0.70;;;23.90;99.90;;;;;;4954148;29;20800;-79
2021/08/19 10:29:52;;;;;;;1.23;0.90;;;23.80;99.90;;;;;;4954967;29;20968;-79
2021/08/19 10:32:23;;;;;;;1.13;0.80;;;23.60;99.90;;;;;;4954719;28;20869;-79
2021/08/19 10:34:55;;;;;;;0.83;0.83;;;23.40;99.90;;;;;;4954253;28;20416;-79
2021/08/19 10:37:20;;;;;;;0.80;0.80;;;22.90;99.90;;;;;;4955060;29;20436;-79
2021/08/19 10:39:46;;;;;;;1.23;0.77;;;22.40;99.90;;;;;;4955045;29;20968;-78
2021/08/19 10:42:27;;;;;;;0.80;0.80;;;22.30;99.90;;;;;;4954642;28;20200;-78
2021/08/19 10:44:53;;;;;;;0.80;0.73;;;22.30;99.90;;;;;;4955862;29;20196;-80
2021/08/19 10:47:36;;;;;;;0.67;0.67;;;22.20;99.90;;;;;;4958194;29;20807;-80
2021/08/19 10:50:27;;;;;;;2.40;0.50;;;22.10;99.90;;;;;;4956798;29;20188;-80
2021/08/19 10:52:54;;;;;;;0.80;0.60;;;22.00;99.90;;;;;;4957947;29;20492;-80
2021/08/19 10:55:19;;;;;;;1.33;0.70;;;22.10;99.90;;;;;;4957706;29;20477;-80
2021/08/19 10:57:50;;;;;;;0.70;0.70;;;22.10;99.90;;;;;;4957917;29;20440;-80
2021/08/19 11:00:17;;;;;;;2.13;0.60;;;22.10;99.90;;;;;;4958056;29;20173;-81
2021/08/19 11:02:54;;;;;;;0.70;0.70;;;22.20;99.90;;;;;;4957978;28;20515;-81
2021/08/19 11:05:25;;;;;;;0.77;0.77;;;22.10;99.90;;;;;;4958184;29;20495;-80
2021/08/19 11:07:52;;;;;;;1.23;0.77;;;22.10;99.90;;;;;;4957308;29;20491;-80
2021/08/19 11:10:26;;;;;;;1.50;1.40;;;22.10;99.90;;;;;;4958525;29;20499;-80
2021/08/19 11:12:52;;;;;;;0.90;0.80;;;21.90;99.90;;;;;;4957719;29;20416;-79
2021/08/19 11:15:19;;;;;;;0.80;0.80;;;21.70;99.90;;;;;;4957993;29;20415;-80
2021/08/19 11:17:55;;;;;;;1.33;1.27;;;21.70;99.90;;;;;;4957961;29;20169;-80
2021/08/19 11:20:23;;;;;;;1.07;0.97;;;21.60;99.90;;;;;;4957931;29;20515;-80
2021/08/19 11:23:03;;;;;;;1.10;1.00;;;21.50;99.90;;;;;;4955004;28;20522;-79
2021/08/19 11:25:30;;;;;;;1.30;1.20;;;21.40;99.90;;;;;;4954409;29;20449;-79
2021/08/19 11:28:05;;;;;;;1.43;1.33;;;21.30;99.90;;;;;;4954263;29;20530;-79
2021/08/19 11:30:37;;;;;;;2.97;1.13;;;21.20;99.90;;;;;;4954316;28;20408;-79
2021/08/19 11:33:15;;;;;;;6.00;1.23;;;21.20;99.90;;;;;;4954597;29;20768;-79
2021/08/19 11:35:43;;;;;;;1.90;1.80;;;21.10;99.90;;;;;;4954473;29;20972;-79
2021/08/19 11:38:17;;;;;;;1.50;1.40;;;21.20;99.90;;;;;;4954402;29;20416;-79
2021/08/19 11:40:45;;;;;;;1.20;1.10;;;21.10;99.90;;;;;;4954326;28;20417;-80
2021/08/19 11:43:22;;;;;;;1.80;1.13;;;21.10;99.90;;;;;;4954155;29;20404;-79
2021/08/19 11:45:53;;;;;;;1.40;1.30;;;21.10;99.90;;;;;;4953767;28;20936;-79
2021/08/19 11:48:21;;;;;;;1.70;1.40;;;21.20;99.90;;;;;;4954287;29;21035;-79
2021/08/19 11:50:54;;;;;;;1.10;1.10;;;21.30;99.90;;;;;;4954037;28;20413;-79
2021/08/19 11:53:21;;;;;;;1.40;1.30;;;21.50;99.90;;;;;;4954142;29;20415;-79
2021/08/19 11:55:47;;;;;;;2.47;1.13;;;21.50;99.90;;;;;;4954521;29;20416;-79
2021/08/19 11:58:24;;;;;;;2.90;1.23;;;21.70;99.90;;;;;;4954129;29;20439;-79
2021/08/19 12:01:09;;;;;;;1.23;1.13;;;22.00;99.90;;;;;;4954019;28;20284;-79
2021/08/19 12:03:40;;;;;;;2.30;1.70;;;22.10;99.90;;;;;;4954118;29;20893;-79
2021/08/19 12:06:11;;;;;;;5.70;0.80;;;22.40;99.90;;;;;;4953962;29;20432;-80
2021/08/19 12:08:44;;;;;;;1.53;1.43;;;22.60;99.90;;;;;;4954792;29;21015;-79
2021/08/19 12:11:13;;;;;;;1.13;0.97;;;22.80;99.90;;;;;;4954555;28;20436;-79
2021/08/19 12:13:39;;;;;;;1.70;1.30;;;22.90;99.90;;;;;;4954464;29;20420;-79
2021/08/19 12:16:05;;;;;;;1.10;1.10;;;23.10;99.90;;;;;;4954378;28;20463;-80
2021/08/19 12:18:30;;;;;;;6.40;1.20;;;23.30;99.90;;;;;;4954527;29;20987;-79
2021/08/19 12:21:20;;;;;;;1.00;0.97;;;23.60;99.90;;;;;;4954505;28;20208;-79
2021/08/19 12:23:47;;;;;;;1.43;1.33;;;23.50;99.90;;;;;;4954331;29;20180;-79
2021/08/19 12:26:15;;;;;;;1.50;1.40;;;23.70;99.90;;;;;;4954490;29;20430;-79
2021/08/19 12:28:54;;;;;;;1.20;1.20;;;23.70;99.90;;;;;;4954102;29;20903;-80
2021/08/19 12:31:19;;;;;;;1.43;1.03;;;23.80;99.90;;;;;;4958712;28;20852;-80
2021/08/19 12:33:45;;;;;;;1.47;0.90;;;23.90;99.90;;;;;;4959440;29;20415;-79
2021/08/19 12:36:12;;;;;;;2.40;1.10;;;24.00;99.90;;;;;;4956285;29;20177;-80
2021/08/19 12:38:39;;;;;;;1.43;1.33;;;24.00;99.90;;;;;;4957106;29;20185;-81
2021/08/19 12:41:13;;;;;;;3.03;1.30;;;23.70;99.90;;;;;;4955607;28;20941;-80
2021/08/19 12:43:40;;;;;;;1.50;1.40;;;23.60;99.90;;;;;;4955753;29;20419;-80
2021/08/19 12:46:10;;;;;;;1.30;1.20;;;23.40;99.90;;;;;;4955370;29;20412;-80
2021/08/19 12:48:36;;;;;;;2.10;1.53;;;23.50;99.90;;;;;;4955312;29;20464;-79
2021/08/19 12:51:24;;;;;;;1.57;1.47;;;23.60;99.90;;;;;;4955534;28;20479;-80
2021/08/19 12:54:08;;;;;;;1.50;1.40;;;23.50;99.90;;;;;;4954845;28;20412;-80
2021/08/19 12:56:37;;;;;;;4.97;1.43;;;23.40;99.90;;;;;;4955770;29;20424;-80
2021/08/19 12:59:03;;;;;;;1.23;1.13;;;23.40;99.90;;;;;;4957906;28;20420;-80
2021/08/19 13:01:29;;;;;;;3.30;1.37;;;23.40;99.90;;;;;;4959222;28;20564;-80
2021/08/19 13:03:55;;;;;;;1.50;1.10;;;23.40;99.90;;;;;;4958599;29;20872;-80
2021/08/19 13:06:20;;;;;;;2.03;1.10;;;23.30;99.90;;;;;;4958751;29;20420;-80
2021/08/19 13:08:47;;;;;;;2.33;1.77;;;23.20;99.90;;;;;;4957988;29;20204;-80
2021/08/19 13:11:15;;;;;;;2.93;1.43;;;23.20;99.90;;;;;;4959202;28;20189;-80
2021/08/19 13:13:41;;;;;;;1.13;1.03;;;23.10;99.90;;;;;;4958950;29;20416;-80
2021/08/19 13:16:06;;;;;;;1.63;1.53;;;23.10;99.90;;;;;;4958385;29;20565;-80
2021/08/19 13:18:32;;;;;;;1.53;1.43;;;23.00;99.90;;;;;;4957709;29;20416;-79
2021/08/19 13:20:57;;;;;;;1.40;1.30;;;23.00;99.90;;;;;;4957474;28;20256;-80
2021/08/19 13:23:23;;;;;;;1.20;1.00;;;23.00;99.90;;;;;;4957728;29;20180;-80
2021/08/19 13:25:49;;;;;;;1.50;1.40;;;22.90;99.90;;;;;;4957058;29;20208;-80
2021/08/19 13:28:16;;;;;;;3.90;1.20;;;22.80;99.90;;;;;;4957203;29;20215;-80
2021/08/19 13:30:41;;;;;;;1.40;1.30;;;22.70;99.90;;;;;;4957158;28;20172;-80
2021/08/19 13:33:07;;;;;;;1.20;1.10;;;22.70;99.90;;;;;;4957027;29;20937;-80
2021/08/19 13:35:33;;;;;;;2.40;1.13;;;22.60;99.90;;;;;;4957207;29;20185;-80
2021/08/19 13:37:59;;;;;;;1.60;1.50;;;22.50;99.90;;;;;;4956966;29;20794;-79
2021/08/19 13:40:25;;;;;;;1.73;1.63;;;22.50;99.90;;;;;;4957194;29;20499;-80
2021/08/19 13:42:50;;;;;;;2.70;1.87;;;22.40;99.90;;;;;;4956699;28;20440;-79
2021/08/19 13:45:16;;;;;;;1.87;1.23;;;22.40;99.90;;;;;;4958595;29;20173;-81
2021/08/19 13:47:42;;;;;;;2.37;1.43;;;22.30;99.90;;;;;;4957014;29;20259;-80
2021/08/19 13:50:08;;;;;;;1.50;1.40;;;22.20;99.90;;;;;;4956803;29;20236;-80
2021/08/19 13:52:33;;;;;;;2.17;1.40;;;22.20;99.90;;;;;;4956888;28;20271;-80
2021/08/19 13:54:59;;;;;;;1.67;1.57;;;22.20;99.90;;;;;;4956745;29;20408;-80
2021/08/19 13:57:24;;;;;;;1.80;1.43;;;22.10;99.90;;;;;;4957125;29;20177;-80
2021/08/19 13:59:50;;;;;;;2.83;1.43;;;22.00;99.90;;;;;;4956689;29;20654;-79
2021/08/19 14:02:15;;;;;;;1.57;1.47;;;21.90;99.90;;;;;;4956677;28;20208;-80
2021/08/19 14:04:41;;;;;;;1.77;1.43;;;21.80;99.90;;;;;;4955882;29;20617;-80
2021/08/19 14:07:06;;;;;;;1.60;1.50;;;21.70;99.90;;;;;;4956394;29;20187;-79
2021/08/19 14:09:32;;;;;;;2.60;1.63;;;21.50;99.90;;;;;;4956228;28;20204;-80
2021/08/19 14:11:57;;;;;;;2.33;1.33;;;21.50;99.90;;;;;;4956156;28;20400;-79
2021/08/19 14:14:23;;;;;;;1.00;0.93;;;21.50;99.90;;;;;;4955999;29;20289;-80
2021/08/19 14:16:49;;;;;;;1.50;1.40;;;21.40;99.90;;;;;;4955913;29;20177;-80
2021/08/19 14:19:14;;;;;;;1.50;1.40;;;21.40;99.90;;;;;;4956077;29;20180;-80
2021/08/19 14:21:40;;;;;;;2.33;1.10;;;21.40;99.90;;;;;;4955688;28;20204;-81
2021/08/19 14:24:06;;;;;;;1.90;1.80;;;21.40;99.90;;;;;;4955701;29;20184;-79
2021/08/19 14:26:32;;;;;;;1.20;1.10;;;21.50;99.90;;;;;;4955782;29;20179;-79
2021/08/19 14:28:57;;;;;;;1.30;1.20;;;21.50;99.90;;;;;;4955412;29;20216;-79
2021/08/19 14:31:23;;;;;;;1.40;1.30;;;21.40;99.90;;;;;;4955719;28;20211;-79
2021/08/19 14:33:48;;;;;;;1.53;1.20;;;21.40;99.90;;;;;;4955252;29;20189;-79
2021/08/19 14:36:14;;;;;;;3.37;1.33;;;21.50;99.90;;;;;;4955403;29;20169;-79
2021/08/19 14:38:40;;;;;;;2.90;1.50;;;21.60;99.90;;;;;;4955079;29;20176;-79
2021/08/19 14:41:05;;;;;;;3.73;1.30;;;21.60;99.90;;;;;;4955394;28;20196;-81
2021/08/19 14:43:31;;;;;;;1.37;1.27;;;21.70;99.90;;;;;;4954917;29;20192;-79
2021/08/19 14:45:57;;;;;;;5.60;2.00;;;21.70;99.90;;;;;;4955323;29;20188;-80
2021/08/19 14:48:24;;;;;;;1.73;1.50;;;21.70;99.90;;;;;;4955346;29;20239;-80
2021/08/19 14:50:50;;;;;;;1.80;1.40;;;21.70;99.90;;;;;;4955401;28;20216;-81
2021/08/19 14:53:16;;;;;;;2.80;2.07;;;21.70;99.90;;;;;;4955577;29;20437;-80
2021/08/19 14:55:41;;;;;;;1.83;1.53;;;21.70;99.90;;;;;;4955233;29;20173;-80
2021/08/19 14:58:07;;;;;;;1.83;1.73;;;21.60;99.90;;;;;;4955494;29;20204;-80
2021/08/19 15:00:33;;;;;;;1.20;1.10;;;21.50;99.90;;;;;;4955567;28;20255;-80
2021/08/19 15:02:59;;;;;;;2.50;1.17;;;21.40;99.90;;;;;;4955303;29;21043;-80
2021/08/19 15:05:24;;;;;;;1.47;1.37;;;21.40;99.90;;;;;;4955608;29;20192;-80
2021/08/19 15:07:50;;;;;;;2.80;1.57;;;21.20;99.90;;;;;;4955323;29;20914;-80
2021/08/19 15:10:16;;;;;;;2.73;1.83;;;21.20;99.90;;;;;;4955734;29;20176;-80
2021/08/19 15:12:41;;;;;;;2.00;1.47;;;21.10;99.90;;;;;;4954845;28;20224;-82
2021/08/19 15:15:07;;;;;;;3.60;1.70;;;21.10;99.90;;;;;;4956165;29;20192;-80
2021/08/19 15:17:33;;;;;;;1.67;1.57;;;21.00;99.90;;;;;;4955590;29;20177;-80
2021/08/19 15:19:59;;;;;;;2.60;1.90;;;20.90;99.90;;;;;;4955349;28;20513;-80
2021/08/19 15:22:25;;;;;;;3.20;2.17;;;20.90;99.90;;;;;;4954892;28;20196;-80
2021/08/19 15:24:53;;;;;;;2.40;2.20;;;20.80;99.90;;;;;;4954819;29;20995;-80
2021/08/19 15:27:19;;;;;;;3.93;2.10;;;20.80;99.90;;;;;;4955193;29;20731;-80
2021/08/19 15:29:46;;;;;;;2.23;1.70;;;20.80;99.90;;;;;;4954817;29;20459;-81
2021/08/19 15:32:13;;;;;;;1.60;1.50;;;20.70;99.90;;;;;;4957311;28;20448;-80
2021/08/19 15:34:46;;;;;;;1.43;1.07;;;20.70;99.90;;;;;;4956195;29;20495;-80
2021/08/19 15:37:15;;;;;;;4.73;1.83;;;20.70;99.90;;;;;;4956028;29;20427;-80
2021/08/19 15:39:41;;;;;;;5.87;1.63;;;20.80;99.90;;;;;;4955654;29;20446;-81
2021/08/19 15:42:14;;;;;;;1.27;1.17;;;20.80;99.90;;;;;;4955981;28;20436;-79
2021/08/19 15:44:39;;;;;;;2.40;1.40;;;20.80;99.90;;;;;;4955154;29;20227;-80
2021/08/19 15:47:06;;;;;;;2.37;1.73;;;20.80;99.90;;;;;;4955901;29;20420;-80
2021/08/19 15:49:36;;;;;;;2.17;1.53;;;20.90;99.90;;;;;;4955251;29;20200;-81
2021/08/19 15:52:02;;;;;;;1.10;1.00;;;21.00;99.90;;;;;;4956006;28;20504;-81
2021/08/19 15:54:27;;;;;;;1.30;1.20;;;21.10;99.90;;;;;;4955790;29;20528;-80
2021/08/19 15:56:54;;;;;;;1.57;1.10;;;21.10;99.90;;;;;;4956276;29;20175;-80
2021/08/19 15:59:20;;;;;;;3.53;1.30;;;21.20;99.90;;;;;;4955974;29;20177;-80
2021/08/19 16:01:45;;;;;;;2.07;1.13;;;21.30;99.90;;;;;;4955118;28;20776;-81
2021/08/19 16:04:11;;;;;;;2.67;1.13;;;21.30;99.90;;;;;;4955462;29;20181;-80
2021/08/19 16:06:38;;;;;;;1.17;1.07;;;21.40;99.90;;;;;;4954644;29;20187;-81
2021/08/19 16:09:05;;;;;;;1.30;1.10;;;21.40;99.90;;;;;;4954581;29;20205;-80
2021/08/19 16:11:31;;;;;;;1.30;1.00;;;21.50;99.90;;;;;;4954953;28;20425;-81
2021/08/19 16:13:57;;;;;;;1.73;1.63;;;21.50;99.90;;;;;;4955191;29;20822;-81
2021/08/19 16:16:22;;;;;;;1.40;1.13;;;21.60;99.90;;;;;;4956027;29;20468;-80
2021/08/19 16:18:48;;;;;;;2.90;1.40;;;21.50;99.90;;;;;;4955527;29;20195;-81
2021/08/19 16:21:14;;;;;;;1.97;1.20;;;21.40;99.90;;;;;;4954929;28;20244;-81
2021/08/19 16:23:39;;;;;;;2.23;1.90;;;21.50;99.90;;;;;;4954701;29;20693;-80
2021/08/19 16:26:06;;;;;;;1.90;1.17;;;21.40;99.90;;;;;;4956006;29;20180;-81
2021/08/19 16:28:31;;;;;;;1.70;1.37;;;21.50;99.90;;;;;;4956989;29;20205;-80
2021/08/19 16:30:57;;;;;;;3.43;2.73;;;21.50;99.90;;;;;;4956835;28;20448;-80
2021/08/19 16:33:22;;;;;;;1.43;1.40;;;21.50;99.90;;;;;;4959640;28;20205;-80
2021/08/19 16:35:48;;;;;;;2.73;1.37;;;21.40;99.90;;;;;;4960917;29;20177;-82
2021/08/19 16:38:14;;;;;;;1.10;0.90;;;21.40;99.90;;;;;;4961074;29;20184;-80
2021/08/19 16:40:39;;;;;;;1.30;1.20;;;21.40;99.90;;;;;;4960958;28;20176;-80
2021/08/19 16:43:05;;;;;;;1.40;1.30;;;21.50;99.90;;;;;;4960120;29;20658;-80
2021/08/19 16:45:31;;;;;;;1.13;0.97;;;21.50;99.90;;;;;;4960209;29;20177;-81
2021/08/19 16:47:58;;;;;;;2.10;1.00;;;21.50;99.90;;;;;;4958623;29;20231;-80
2021/08/19 16:50:24;;;;;;;1.43;1.10;;;21.50;99.90;;;;;;4958082;29;20256;-81
2021/08/19 16:52:51;;;;;;;2.70;0.90;;;21.50;99.90;;;;;;4957872;28;20869;-81
2021/08/19 16:55:17;;;;;;;0.90;0.90;;;21.40;99.90;;;;;;4958518;29;20412;-80
2021/08/19 16:57:43;;;;;;;1.73;0.90;;;21.40;99.90;;;;;;4957685;29;20556;-80
2021/08/19 17:00:09;;;;;;;3.70;0.80;;;21.40;99.90;;;;;;4958152;29;20945;-81
2021/08/19 17:02:34;;;;;;;2.40;1.10;;;21.40;99.90;;;;;;4956974;28;20584;-81
2021/08/19 17:05:00;;;;;;;2.03;1.60;;;21.30;99.90;;;;;;4958186;29;20416;-81
2021/08/19 17:07:25;;;;;;;1.10;1.10;;;21.30;99.90;;;;;;4958699;29;20232;-80
2021/08/19 17:09:53;;;;;;;1.00;1.00;;;21.20;99.90;;;;;;4956926;29;20209;-80
2021/08/19 17:12:18;;;;;;;0.80;0.80;;;21.20;99.90;;;;;;4957871;28;20189;-81
2021/08/19 17:14:44;;;;;;;2.03;0.90;;;21.20;99.90;;;;;;4958314;29;20412;-81
2021/08/19 17:17:09;;;;;;;0.90;0.90;;;21.20;99.90;;;;;;4958071;29;20187;-80
2021/08/19 17:19:35;;;;;;;1.13;1.03;;;21.20;99.90;;;;;;4957691;29;20268;-80